SAAR/ROS METAR and TAF weather

Enter ICAO airport designator
Station Type Date Time Source
SAAR METAR 2019/06/17 12:02 UTC NOAA

SAAR 171202Z 27004KT 2000 -TSRA BR BKN006 FEW045CB OVC050 10/10 Q1020


Station Type Date Time Source
SAAR Decoded METAR 2019/06/17 12:02 UTC NOAA

Rosario Aerodrome, Argentina (SAAR) 32-55S 060-47W 25M
Jun 17, 2019 - 08:02 AM EDT / 2019.06.17 1202 UTC
Wind: from the W (270 degrees) at 5 MPH (4 KT):0
Visibility: 1 mile(s):0
Sky conditions: overcast
Weather: light rain with thunder; mist; Cumulonimbus clouds observed
Temperature: 50 F (10 C)
Dew Point: 50 F (10 C)
Relative Humidity: 100%
Pressure (altimeter): 30.12 in. Hg (1020 hPa)
ob: SAAR 171202Z 27004KT 2000 -TSRA BR BKN006 FEW045CB OVC050 10/10 Q1020
cycle: 12

Station Type Date Time Source
SAAR TAF 2019/06/17 12:12 UTC NOAA

TAF TAF SAAR 171100Z 1712/1812 27005KT 6000 -DZ BKN005 OVC008 TX11/1716Z TN08/1811Z
BECMG 1712/1713 VRB05KT 4000 RA BKN004 OVC020
TEMPO 1713/1720 2000 TSRA BKN005 OVC025 FEW035CB

Example: see airport list